Terminal Aerodrome Forecast
Issued by NWS Omaha/Valley, NE

Home | Current Version | Previous Version | Text Only | Print | Product List | Glossary On
Versions: 1 2 3 4 5 6 7 8 9 10 11 12 13 14 15 16 17 18 19 20 21 22 23 24 25
000
FTUS43 KOAX 200835 AAB
TAFLNK
TAF AMD
KLNK 200835Z 2009/2106 VRB03KT 1/2SM FG OVC002
      TEMPO 2009/2010 3/4SM BR SCT002 OVC020
     FM201000 00000KT 1/4SM FG OVC002
     FM201500 12006KT 3SM BR OVC004
     FM201900 12006KT 5SM BR OVC008
     FM210000 10004KT 1SM -DZ BR OVC003=

USA.gov is the U.S. government's official web portal to all federal, state and local government web resources and services.